createdAt,value
2018-11-25T00:00:42.583Z,43.87
2018-11-25T00:03:10.986Z,47.40
2018-11-25T00:05:39.402Z,48.00
2018-11-25T00:08:07.772Z,53.53
2018-11-25T00:10:36.144Z,48.73
2018-11-25T00:13:04.758Z,55.93
2018-11-25T00:15:33.058Z,46.10
2018-11-25T00:18:01.414Z,57.60
2018-11-25T00:20:29.738Z,52.87
2018-11-25T00:22:58.111Z,50.10
2018-11-25T00:25:26.475Z,55.07
2018-11-25T00:27:54.798Z,57.40
2018-11-25T00:30:23.129Z,58.17
2018-11-25T00:32:51.515Z,59.23
2018-11-25T00:35:19.810Z,62.97
2018-11-25T00:37:48.919Z,50.87
2018-11-25T00:40:16.756Z,57.00
2018-11-25T00:42:45.513Z,54.13
2018-11-25T00:45:17.945Z,67.23
2018-11-25T00:47:46.440Z,63.07
2018-11-25T00:50:15.063Z,64.83
2018-11-25T00:52:43.401Z,70.67
2018-11-25T00:55:13.803Z,72.83
2018-11-25T00:57:42.180Z,75.00
2018-11-25T01:00:18.389Z,71.73
2018-11-25T01:02:47.495Z,63.23
2018-11-25T01:05:15.751Z,79.90
2018-11-25T01:07:44.176Z,77.83
2018-11-25T01:10:14.181Z,74.03
2018-11-25T01:12:42.914Z,67.77
2018-11-25T01:15:13.150Z,72.13
2018-11-25T01:17:41.475Z,74.67
2018-11-25T01:20:13.033Z,77.63
2018-11-25T01:22:41.432Z,80.70
2018-11-25T01:25:10.385Z,85.43
2018-11-25T01:27:38.781Z,79.27
2018-11-25T01:30:11.365Z,98.40
2018-11-25T01:32:39.710Z,75.40
2018-11-25T01:35:09.317Z,83.53
2018-11-25T01:37:37.719Z,81.10
2018-11-25T01:40:09.515Z,83.60
2018-11-25T01:42:37.892Z,83.37
2018-11-25T01:45:07.630Z,83.73
2018-11-25T01:47:35.993Z,90.30
2018-11-25T01:50:05.288Z,89.03
2018-11-25T01:52:33.579Z,88.13
2018-11-25T01:55:01.911Z,93.60
2018-11-25T01:57:30.250Z,89.07
2018-11-25T01:59:58.638Z,106.77
2018-11-25T02:02:26.962Z,96.70
2018-11-25T02:04:55.264Z,93.03
2018-11-25T02:07:23.592Z,101.13
2018-11-25T02:09:52.014Z,101.77
2018-11-25T02:12:20.369Z,83.20
2018-11-25T02:14:48.754Z,99.73
2018-11-25T02:17:17.050Z,87.23
2018-11-25T02:19:45.427Z,100.60
2018-11-25T02:22:13.800Z,100.73
2018-11-25T02:24:42.129Z,97.33
2018-11-25T02:27:10.550Z,107.27
2018-11-25T02:29:38.853Z,100.07
2018-11-25T02:32:07.225Z,112.50
2018-11-25T02:34:35.622Z,107.17
2018-11-25T02:37:03.976Z,102.77
2018-11-25T02:39:32.297Z,95.43
2018-11-25T02:42:00.618Z,112.77
2018-11-25T02:44:28.922Z,120.43
2018-11-25T02:46:57.266Z,122.20
2018-11-25T02:49:25.612Z,118.10
2018-11-25T02:51:53.888Z,107.87
2018-11-25T02:54:22.195Z,104.00
2018-11-25T02:56:50.521Z,106.70
2018-11-25T02:59:18.838Z,118.67
2018-11-25T03:01:47.260Z,119.33
2018-11-25T03:04:15.668Z,112.10
2018-11-25T03:06:44.036Z,109.90
2018-11-25T03:09:12.384Z,108.63
2018-11-25T03:11:40.774Z,110.60
2018-11-25T03:14:09.080Z,115.83
2018-11-25T03:16:37.433Z,113.27
2018-11-25T03:19:05.848Z,124.10
2018-11-25T03:21:34.220Z,131.53
2018-11-25T03:24:02.731Z,124.87
2018-11-25T03:26:31.068Z,113.67
2018-11-25T03:28:59.380Z,111.67
2018-11-25T03:31:27.704Z,121.37
2018-11-25T03:33:56.166Z,132.17
2018-11-25T03:36:24.548Z,126.40
2018-11-25T03:38:52.932Z,120.17
2018-11-25T03:41:21.299Z,111.87
2018-11-25T03:43:49.605Z,124.07
2018-11-25T03:46:17.940Z,130.93
2018-11-25T03:48:46.275Z,129.43
2018-11-25T03:51:14.620Z,118.37
2018-11-25T03:53:42.956Z,120.57
2018-11-25T03:56:11.301Z,126.57
2018-11-25T03:58:39.650Z,127.07
2018-11-25T04:01:07.945Z,114.00
2018-11-25T04:03:36.270Z,132.37
2018-11-25T04:06:04.999Z,124.67
2018-11-25T04:08:33.331Z,131.53
2018-11-25T04:11:01.671Z,117.63
2018-11-25T04:13:29.984Z,138.70
2018-11-25T04:15:58.288Z,119.80
2018-11-25T04:18:26.690Z,129.23
2018-11-25T04:20:55.009Z,130.87
2018-11-25T04:23:29.981Z,125.23
2018-11-25T04:25:58.309Z,116.63
2018-11-25T04:28:26.609Z,118.30
2018-11-25T04:30:54.942Z,140.33
2018-11-25T04:33:23.341Z,131.27
2018-11-25T04:35:51.623Z,120.23
2018-11-25T04:38:19.959Z,128.13
2018-11-25T04:40:48.295Z,126.80
2018-11-25T04:43:16.663Z,130.13
2018-11-25T04:45:45.112Z,133.37
2018-11-25T04:48:13.419Z,134.97
2018-11-25T04:50:41.777Z,145.57
2018-11-25T04:53:10.084Z,123.83
2018-11-25T04:55:38.474Z,140.87
2018-11-25T04:58:06.876Z,136.50
2018-11-25T05:00:35.155Z,135.60
2018-11-25T05:03:03.468Z,146.93
2018-11-25T05:05:31.881Z,152.77
2018-11-25T05:08:00.297Z,145.63
2018-11-25T05:10:28.652Z,133.23
2018-11-25T05:12:56.986Z,157.47
2018-11-25T05:15:25.300Z,155.67
2018-11-25T05:17:53.645Z,159.67
2018-11-25T05:20:22.051Z,148.63
2018-11-25T05:22:50.354Z,143.57
2018-11-25T05:25:19.291Z,139.27
2018-11-25T05:27:47.652Z,150.47
2018-11-25T05:30:18.594Z,150.43
2018-11-25T05:32:46.969Z,139.60
2018-11-25T05:35:17.227Z,148.17
2018-11-25T05:37:45.680Z,146.23
2018-11-25T05:40:14.934Z,145.87
2018-11-25T05:42:43.298Z,135.70
2018-11-25T05:45:13.584Z,140.53
2018-11-25T05:47:41.952Z,146.07
2018-11-25T05:50:11.725Z,126.87
2018-11-25T05:52:40.031Z,149.27
2018-11-25T05:55:09.258Z,138.30
2018-11-25T05:57:37.705Z,158.80
2018-11-25T06:00:18.937Z,146.80
2018-11-25T06:02:47.316Z,145.03
2018-11-25T06:05:15.624Z,139.67
2018-11-25T06:07:43.931Z,138.10
2018-11-25T06:10:13.079Z,159.90
2018-11-25T06:12:41.581Z,147.00
2018-11-25T06:15:13.621Z,151.43
2018-11-25T06:17:42.108Z,141.90
2018-11-25T06:20:11.725Z,146.33
2018-11-25T06:22:40.149Z,145.60
2018-11-25T06:25:10.793Z,132.47
2018-11-25T06:27:39.121Z,166.93
2018-11-25T06:30:09.815Z,141.37
2018-11-25T06:32:38.223Z,144.23
2018-11-25T06:35:08.082Z,148.97
2018-11-25T06:37:36.437Z,140.43
2018-11-25T06:40:07.440Z,158.40
2018-11-25T06:42:35.921Z,150.27
2018-11-25T06:45:05.008Z,154.43
2018-11-25T06:47:33.291Z,158.03
2018-11-25T06:50:01.619Z,142.50
2018-11-25T06:52:29.925Z,157.13
2018-11-25T06:54:58.207Z,145.90
2018-11-25T06:57:26.542Z,179.60
2018-11-25T06:59:54.891Z,193.30
2018-11-25T07:02:23.205Z,234.90
2018-11-25T07:04:51.659Z,221.60
2018-11-25T07:07:20.198Z,200.77
2018-11-25T07:09:48.512Z,220.43
2018-11-25T07:12:16.850Z,220.80
2018-11-25T07:14:45.283Z,223.50
2018-11-25T07:17:13.619Z,215.57
2018-11-25T07:19:42.133Z,218.47
2018-11-25T07:22:10.731Z,205.43
2018-11-25T07:24:39.127Z,217.70
2018-11-25T07:27:07.502Z,228.13
2018-11-25T07:29:35.832Z,215.83
2018-11-25T07:32:04.198Z,220.40
2018-11-25T07:34:33.115Z,252.15
2018-11-25T07:37:01.451Z,218.87
2018-11-25T07:39:29.956Z,222.47
2018-11-25T07:41:58.227Z,209.07
2018-11-25T07:44:26.547Z,199.67
2018-11-25T07:46:55.191Z,197.57
2018-11-25T07:49:23.524Z,181.47
2018-11-25T07:51:51.881Z,186.13
2018-11-25T07:54:20.308Z,200.60
2018-11-25T07:56:48.670Z,197.07
2018-11-25T07:59:16.990Z,202.30
2018-11-25T08:01:45.437Z,205.90
2018-11-25T08:04:13.783Z,191.77
2018-11-25T08:06:42.161Z,187.53
2018-11-25T08:09:10.470Z,186.57
2018-11-25T08:11:38.819Z,177.13
2018-11-25T08:14:07.302Z,186.87
2018-11-25T08:16:35.938Z,182.00
2018-11-25T08:19:04.381Z,169.17
2018-11-25T08:21:32.774Z,172.50
2018-11-25T08:24:01.122Z,134.80
2018-11-25T08:26:29.446Z,102.60
2018-11-25T08:28:57.784Z,88.27
2018-11-25T08:31:26.883Z,72.77
2018-11-25T08:33:55.185Z,65.90
2018-11-25T08:36:23.510Z,51.93
2018-11-25T08:38:52.136Z,40.07
2018-11-25T08:41:20.868Z,42.07
2018-11-25T08:43:49.170Z,46.97
2018-11-25T08:46:17.510Z,34.07
2018-11-25T08:48:45.901Z,34.33
2018-11-25T08:51:14.207Z,27.03
2018-11-25T08:53:42.469Z,35.20
2018-11-25T08:56:10.813Z,25.77
2018-11-25T08:58:39.140Z,27.47
2018-11-25T09:01:07.539Z,41.90
2018-11-25T09:03:35.858Z,29.50
2018-11-25T09:06:04.218Z,51.47
2018-11-25T09:08:32.616Z,5.53
2018-11-25T09:11:00.994Z,5.33
2018-11-25T09:13:29.357Z,3.42
2018-11-25T09:15:57.768Z,3.42
2018-11-25T09:18:26.149Z,6.90
2018-11-25T09:20:54.502Z,4.17
2018-11-25T09:23:22.838Z,4.42
2018-11-25T09:25:51.147Z,3.87
2018-11-25T09:28:19.641Z,5.33
2018-11-25T09:30:47.958Z,5.75
2018-11-25T09:33:16.254Z,3.87
2018-11-25T09:35:44.692Z,4.08
2018-11-25T09:38:13.131Z,3.98
2018-11-25T09:40:41.422Z,4.70
2018-11-25T09:43:09.778Z,6.50
2018-11-25T09:45:38.314Z,5.05
2018-11-25T09:48:06.818Z,15.10
2018-11-25T09:50:35.467Z,34.08
2018-11-25T09:53:04.292Z,40.98
2018-11-25T09:55:33.849Z,57.23
2018-11-25T09:58:01.574Z,151.30
2018-11-25T10:00:33.123Z,52.08
2018-11-25T10:03:01.980Z,46.73
2018-11-25T10:05:30.296Z,48.68
2018-11-25T10:07:58.785Z,43.68
2018-11-25T10:10:27.234Z,46.25
2018-11-25T10:12:55.646Z,46.08
2018-11-25T10:15:25.937Z,49.50
2018-11-25T10:17:59.438Z,50.33
2018-11-25T10:20:25.664Z,60.70
2018-11-25T10:22:54.022Z,79.87
2018-11-25T10:25:22.315Z,181.87
2018-11-25T10:27:50.614Z,181.30
2018-11-25T10:30:21.897Z,185.30
2018-11-25T10:33:02.267Z,176.97
2018-11-25T10:35:30.696Z,175.68
2018-11-25T10:38:00.532Z,174.00
2018-11-25T10:40:28.938Z,174.75
2018-11-25T10:42:57.279Z,172.30
2018-11-25T10:45:26.599Z,166.07
2018-11-25T10:47:55.608Z,169.32
2018-11-25T10:50:23.989Z,169.80
2018-11-25T10:52:52.424Z,165.18
2018-11-25T10:55:21.676Z,167.53
2018-11-25T10:57:51.739Z,168.20
2018-11-25T11:00:27.576Z,172.47
2018-11-25T11:03:01.432Z,161.57
2018-11-25T11:05:35.293Z,162.82
2018-11-25T11:08:03.673Z,162.22
2018-11-25T11:10:32.000Z,163.35
2018-11-25T11:13:00.377Z,160.55
2018-11-25T11:15:28.870Z,161.45
2018-11-25T11:17:57.208Z,159.32
2018-11-25T11:20:25.603Z,159.93
2018-11-25T11:22:54.043Z,160.65
2018-11-25T11:25:22.426Z,157.82
2018-11-25T11:27:51.056Z,156.67
2018-11-25T11:30:19.414Z,162.82
2018-11-25T11:32:49.176Z,155.75
2018-11-25T11:35:17.636Z,154.68
2018-11-25T11:37:46.048Z,152.47
2018-11-25T11:40:15.153Z,154.35
2018-11-25T11:42:43.493Z,152.47
2018-11-25T11:45:12.890Z,160.20
2018-11-25T11:47:42.869Z,152.15
2018-11-25T11:50:16.624Z,151.53
2018-11-25T11:52:45.068Z,146.32
2018-11-25T11:55:14.577Z,150.00
2018-11-25T11:57:43.614Z,148.82
2018-11-25T12:00:13.652Z,154.03
2018-11-25T12:02:42.403Z,147.22
2018-11-25T12:05:10.783Z,145.70
2018-11-25T12:07:39.241Z,142.35
2018-11-25T12:10:11.199Z,144.02
2018-11-25T12:12:39.558Z,143.05
2018-11-25T12:15:14.596Z,142.25
2018-11-25T12:17:42.920Z,141.37
2018-11-25T12:20:11.624Z,142.22
2018-11-25T12:22:40.137Z,144.28
2018-11-25T12:25:16.254Z,138.37
2018-11-25T12:27:44.704Z,140.22
2018-11-25T12:30:15.007Z,150.00
2018-11-25T12:32:44.327Z,136.30
2018-11-25T12:35:13.931Z,136.47
2018-11-25T12:37:42.321Z,139.68
2018-11-25T12:40:12.925Z,140.30
2018-11-25T12:42:41.737Z,128.53
2018-11-25T12:45:15.489Z,132.18
2018-11-25T12:47:43.853Z,133.45
2018-11-25T12:50:14.399Z,132.57
2018-11-25T12:52:42.864Z,121.28
2018-11-25T12:55:12.925Z,129.45
2018-11-25T12:57:41.417Z,147.47
2018-11-25T13:00:18.961Z,124.45
2018-11-25T13:02:47.591Z,130.93
2018-11-25T13:05:16.250Z,130.00
2018-11-25T13:07:45.039Z,142.32
2018-11-25T13:10:13.395Z,121.42
2018-11-25T13:12:41.865Z,103.78
2018-11-25T13:15:10.655Z,132.37
2018-11-25T13:17:38.939Z,124.12
2018-11-25T13:20:10.155Z,109.55
2018-11-25T13:22:39.211Z,104.17
2018-11-25T13:25:09.415Z,102.85
2018-11-25T13:27:38.043Z,91.97
2018-11-25T13:30:14.450Z,77.32
2018-11-25T13:32:43.065Z,112.60
2018-11-25T13:35:12.049Z,114.25
2018-11-25T13:37:40.736Z,106.07
2018-11-25T13:40:10.364Z,101.42
2018-11-25T13:42:39.031Z,103.00
2018-11-25T13:45:06.399Z,100.07
2018-11-25T13:47:35.071Z,99.60
2018-11-25T13:50:03.418Z,99.22
2018-11-25T13:52:31.989Z,96.60
2018-11-25T13:55:00.400Z,96.60
2018-11-25T13:57:29.102Z,100.80
2018-11-25T13:59:58.068Z,110.65
2018-11-25T14:02:26.376Z,95.03
2018-11-25T14:04:54.843Z,84.40
2018-11-25T14:07:23.176Z,76.10
2018-11-25T14:09:51.911Z,91.42
2018-11-25T14:12:20.255Z,71.25
2018-11-25T14:14:48.591Z,76.75
2018-11-25T14:17:16.933Z,56.33
2018-11-25T14:19:45.358Z,66.33
2018-11-25T14:22:13.737Z,46.18
2018-11-25T14:24:42.060Z,75.57
2018-11-25T14:27:10.774Z,69.62
2018-11-25T14:29:39.101Z,71.55
2018-11-25T14:32:07.475Z,109.60
2018-11-25T14:34:35.843Z,112.75
2018-11-25T14:37:04.281Z,108.97
2018-11-25T14:39:32.610Z,94.45
2018-11-25T14:42:00.930Z,88.80
2018-11-25T14:44:29.310Z,79.65
2018-11-25T14:46:57.751Z,80.85
2018-11-25T14:49:26.076Z,93.07
2018-11-25T14:51:54.413Z,89.05
2018-11-25T14:54:22.814Z,90.05
2018-11-25T14:56:51.094Z,105.10
2018-11-25T14:59:19.515Z,145.40
2018-11-25T15:01:47.874Z,136.43
2018-11-25T15:04:16.163Z,128.02
2018-11-25T15:06:44.516Z,123.70
2018-11-25T15:09:12.854Z,93.62
2018-11-25T15:11:41.111Z,106.90
2018-11-25T15:14:09.454Z,76.90
2018-11-25T15:16:38.012Z,86.97
2018-11-25T15:19:07.036Z,108.65
2018-11-25T15:21:35.503Z,140.88
2018-11-25T15:24:03.842Z,138.95
2018-11-25T15:26:32.179Z,141.85
2018-11-25T15:29:00.574Z,143.13
2018-11-25T15:31:28.919Z,143.07
2018-11-25T15:33:57.254Z,142.22
2018-11-25T15:36:25.606Z,129.90
2018-11-25T15:38:54.006Z,142.70
2018-11-25T15:41:22.334Z,129.87
2018-11-25T15:43:50.660Z,130.67
2018-11-25T15:46:18.960Z,121.90
2018-11-25T15:48:47.234Z,124.10
2018-11-25T15:51:15.622Z,127.02
2018-11-25T15:53:43.932Z,96.95
2018-11-25T15:56:12.260Z,124.55
2018-11-25T15:58:40.677Z,117.47
2018-11-25T16:01:08.995Z,120.80
2018-11-25T16:03:37.280Z,114.42
2018-11-25T16:06:12.261Z,104.83
2018-11-25T16:08:40.554Z,95.83
2018-11-25T16:11:08.857Z,66.47
2018-11-25T16:13:37.225Z,84.70
2018-11-25T16:16:05.574Z,100.70
2018-11-25T16:18:33.985Z,102.58
2018-11-25T16:21:02.473Z,105.60
2018-11-25T16:23:30.788Z,107.27
2018-11-25T16:26:02.001Z,100.65
2018-11-25T16:28:33.718Z,83.67
2018-11-25T16:31:01.981Z,97.12
2018-11-25T16:33:30.416Z,87.45
2018-11-25T16:35:58.904Z,72.27
2018-11-25T16:38:27.218Z,84.97
2018-11-25T16:40:55.530Z,108.70
2018-11-25T16:43:23.984Z,91.63
2018-11-25T16:45:52.321Z,100.50
2018-11-25T16:48:20.738Z,91.37
2018-11-25T16:50:49.058Z,66.50
2018-11-25T16:53:17.559Z,79.53
2018-11-25T16:55:45.920Z,71.67
2018-11-25T16:58:14.231Z,78.67
2018-11-25T17:00:42.587Z,80.90
2018-11-25T17:03:10.940Z,71.57
2018-11-25T17:05:41.411Z,81.02
2018-11-25T17:08:14.949Z,58.10
2018-11-25T17:10:43.221Z,48.90
2018-11-25T17:13:11.597Z,49.58
2018-11-25T17:15:39.978Z,112.30
2018-11-25T17:18:08.363Z,60.55
2018-11-25T17:20:36.693Z,60.95
2018-11-25T17:23:05.450Z,78.55
2018-11-25T17:25:33.786Z,58.90
2018-11-25T17:28:02.067Z,67.80
2018-11-25T17:30:30.445Z,66.50
2018-11-25T17:32:58.754Z,84.42
2018-11-25T17:35:28.760Z,74.67
2018-11-25T17:37:57.120Z,69.22
2018-11-25T17:40:25.479Z,58.15
2018-11-25T17:42:53.786Z,65.35
2018-11-25T17:45:22.160Z,58.02
2018-11-25T17:47:50.529Z,66.87
2018-11-25T17:50:21.350Z,59.75
2018-11-25T17:52:49.854Z,95.95
2018-11-25T17:55:19.144Z,69.12
2018-11-25T17:57:47.528Z,98.07
2018-11-25T18:00:25.179Z,74.92
2018-11-25T18:02:53.471Z,82.02
2018-11-25T18:05:21.813Z,82.92
2018-11-25T18:07:50.133Z,80.20
2018-11-25T18:10:18.568Z,62.90
2018-11-25T18:12:47.124Z,57.73
2018-11-25T18:15:16.981Z,67.85
2018-11-25T18:17:54.537Z,53.13
2018-11-25T18:20:23.718Z,68.05
2018-11-25T18:22:52.085Z,77.85
2018-11-25T18:25:20.407Z,39.10
2018-11-25T18:27:48.749Z,72.45
2018-11-25T18:30:17.655Z,55.35
2018-11-25T18:32:46.568Z,56.77
2018-11-25T18:35:15.012Z,68.97
2018-11-25T18:37:43.407Z,55.78
2018-11-25T18:40:13.523Z,60.30
2018-11-25T18:42:42.802Z,50.17
2018-11-25T18:45:14.357Z,46.33
2018-11-25T18:47:44.220Z,50.40
2018-11-25T18:50:13.825Z,44.95
2018-11-25T18:52:43.199Z,91.87
2018-11-25T18:55:10.444Z,84.55
2018-11-25T18:57:38.837Z,105.05
2018-11-25T19:00:12.627Z,89.97
2018-11-25T19:02:43.699Z,92.08
2018-11-25T19:05:12.119Z,103.50
2018-11-25T19:07:40.580Z,129.93
2018-11-25T19:10:11.700Z,123.02
2018-11-25T19:12:44.241Z,120.53
2018-11-25T19:15:09.920Z,135.35
2018-11-25T19:17:38.228Z,142.95
2018-11-25T19:20:12.400Z,153.07
2018-11-25T19:22:41.271Z,168.02
2018-11-25T19:25:11.229Z,165.12
2018-11-25T19:27:39.884Z,128.68
2018-11-25T19:30:10.551Z,171.18
2018-11-25T19:32:38.896Z,133.65
2018-11-25T19:35:10.033Z,141.00
2018-11-25T19:37:38.356Z,138.75
2018-11-25T19:40:11.775Z,130.43
2018-11-25T19:42:40.199Z,128.60
2018-11-25T19:45:10.523Z,136.95
2018-11-25T19:47:39.002Z,135.30
2018-11-25T19:50:10.683Z,132.65
2018-11-25T19:52:39.056Z,132.00
2018-11-25T19:55:07.627Z,131.67
2018-11-25T19:57:35.995Z,129.30
2018-11-25T20:00:06.874Z,126.62
2018-11-25T20:02:35.523Z,125.70
2018-11-25T20:05:03.845Z,125.10
2018-11-25T20:07:32.179Z,122.70
2018-11-25T20:10:00.561Z,120.53
2018-11-25T20:12:34.390Z,125.97
2018-11-25T20:15:02.777Z,128.93
2018-11-25T20:17:31.158Z,131.07
2018-11-25T20:19:59.689Z,134.40
2018-11-25T20:22:28.055Z,134.72
2018-11-25T20:24:56.524Z,136.82
2018-11-25T20:27:30.698Z,136.45
2018-11-25T20:29:59.140Z,141.45
2018-11-25T20:32:33.006Z,139.77
2018-11-25T20:35:01.331Z,138.35
2018-11-25T20:37:29.661Z,139.30
2018-11-25T20:39:58.157Z,141.57
2018-11-25T20:42:26.476Z,140.47
2018-11-25T20:44:54.837Z,140.57
2018-11-25T20:47:23.183Z,138.32
2018-11-25T20:49:51.490Z,137.65
2018-11-25T20:52:25.166Z,136.92
2018-11-25T20:54:53.567Z,136.22
2018-11-25T20:57:21.883Z,135.65
2018-11-25T20:59:50.213Z,134.70
2018-11-25T21:02:20.409Z,132.85
2018-11-25T21:04:47.001Z,128.47
2018-11-25T21:07:15.315Z,123.97
2018-11-25T21:09:43.720Z,119.05
2018-11-25T21:12:12.143Z,122.37
2018-11-25T21:14:40.616Z,120.47
2018-11-25T21:17:08.941Z,118.25
2018-11-25T21:19:37.284Z,121.50
2018-11-25T21:22:05.902Z,150.12
2018-11-25T21:24:34.349Z,150.00
2018-11-25T21:27:02.726Z,149.30
2018-11-25T21:29:31.101Z,144.62
2018-11-25T21:31:59.494Z,131.47
2018-11-25T21:34:27.778Z,127.07
2018-11-25T21:36:56.070Z,108.90
2018-11-25T21:39:24.508Z,125.40
2018-11-25T21:41:52.874Z,116.12
2018-11-25T21:44:21.183Z,108.12
2018-11-25T21:46:49.598Z,107.55
2018-11-25T21:49:18.065Z,95.38
2018-11-25T21:51:46.533Z,101.55
2018-11-25T21:54:15.025Z,101.53
2018-11-25T21:56:43.322Z,83.72
2018-11-25T21:59:11.675Z,79.82
2018-11-25T22:01:39.968Z,80.65
2018-11-25T22:04:08.392Z,76.00
2018-11-25T22:06:36.821Z,45.70
2018-11-25T22:09:09.020Z,62.60
2018-11-25T22:11:37.763Z,75.80
2018-11-25T22:14:06.251Z,43.78
2018-11-25T22:16:34.613Z,63.55
2018-11-25T22:19:02.967Z,59.13
2018-11-25T22:21:31.325Z,44.30
2018-11-25T22:23:59.613Z,35.88
2018-11-25T22:26:28.056Z,31.62
2018-11-25T22:28:56.436Z,28.05
2018-11-25T22:31:24.854Z,31.62
2018-11-25T22:33:53.177Z,36.13
2018-11-25T22:36:21.470Z,30.68
2018-11-25T22:38:49.790Z,46.30
2018-11-25T22:41:18.132Z,25.72
2018-11-25T22:43:46.577Z,31.87
2018-11-25T22:46:14.947Z,25.35
2018-11-25T22:48:43.309Z,56.98
2018-11-25T22:51:11.674Z,34.33
2018-11-25T22:53:40.574Z,24.72
2018-11-25T22:56:08.894Z,57.83
2018-11-25T22:58:37.184Z,55.67
2018-11-25T23:01:06.155Z,37.67
2018-11-25T23:03:34.439Z,27.75
2018-11-25T23:06:18.025Z,27.75
2018-11-25T23:08:46.350Z,24.12
2018-11-25T23:11:17.294Z,39.10
2018-11-25T23:13:45.583Z,42.73
2018-11-25T23:16:13.857Z,40.15
2018-11-25T23:18:42.234Z,28.12
2018-11-25T23:21:10.583Z,34.67
2018-11-25T23:23:38.907Z,52.83
2018-11-25T23:26:07.221Z,45.58
2018-11-25T23:28:35.574Z,57.98
2018-11-25T23:31:03.899Z,33.75
2018-11-25T23:33:32.213Z,24.72
2018-11-25T23:36:00.549Z,29.37
2018-11-25T23:38:28.903Z,33.60
2018-11-25T23:40:57.235Z,25.05
2018-11-25T23:43:25.532Z,43.42
2018-11-25T23:45:53.911Z,82.02
2018-11-25T23:48:22.320Z,71.40
2018-11-25T23:50:50.614Z,45.95
2018-11-25T23:53:19.003Z,55.55
2018-11-25T23:55:47.277Z,45.67
2018-11-25T23:58:15.691Z,33.60
